createdAt,value
2019-03-25T00:02:22.566Z,6.56
2019-03-25T00:07:26.007Z,6.36
2019-03-25T00:12:29.482Z,6.43
2019-03-25T00:17:32.917Z,6.43
2019-03-25T00:22:36.346Z,6.52
2019-03-25T00:27:39.776Z,6.57
2019-03-25T00:32:43.205Z,6.56
2019-03-25T00:37:46.632Z,6.66
2019-03-25T00:42:50.064Z,6.67
2019-03-25T00:47:53.486Z,6.71
2019-03-25T00:52:56.910Z,6.66
2019-03-25T00:58:00.325Z,6.67
2019-03-25T01:03:03.736Z,6.77
2019-03-25T01:08:07.155Z,6.73
2019-03-25T01:13:10.581Z,6.83
2019-03-25T01:18:17.191Z,6.88
2019-03-25T01:23:19.136Z,6.91
2019-03-25T01:28:22.595Z,6.86
2019-03-25T01:33:26.045Z,6.76
2019-03-25T01:38:29.458Z,6.91
2019-03-25T01:43:32.872Z,6.93
2019-03-25T01:48:36.298Z,6.84
2019-03-25T01:53:39.762Z,6.97
2019-03-25T01:58:43.214Z,7.08
2019-03-25T02:03:46.668Z,6.99
2019-03-25T02:08:50.175Z,7.05
2019-03-25T02:13:53.629Z,6.96
2019-03-25T02:18:57.080Z,7.14
2019-03-25T02:24:00.547Z,7.19
2019-03-25T02:29:04.029Z,7.13
2019-03-25T02:34:07.510Z,7.11
2019-03-25T02:39:10.954Z,7.19
2019-03-25T02:44:14.390Z,7.17
2019-03-25T02:49:17.845Z,7.14
2019-03-25T02:54:21.313Z,7.08
2019-03-25T02:59:24.749Z,7.11
2019-03-25T03:04:28.268Z,7.10
2019-03-25T03:09:31.734Z,7.08
2019-03-25T03:14:35.194Z,7.10
2019-03-25T03:19:38.660Z,7.18
2019-03-25T03:24:42.097Z,7.17
2019-03-25T03:29:45.548Z,7.17
2019-03-25T03:34:49.095Z,7.13
2019-03-25T03:39:52.561Z,7.05
2019-03-25T03:44:55.997Z,6.98
2019-03-25T03:49:59.441Z,6.47
2019-03-25T03:55:03.353Z,6.27
2019-03-25T04:00:37.374Z,6.19
2019-03-25T04:05:40.831Z,6.17
2019-03-25T04:10:44.322Z,6.12
2019-03-25T04:15:47.829Z,6.21
2019-03-25T04:20:51.250Z,6.21
2019-03-25T04:25:54.689Z,6.18
2019-03-25T04:30:58.088Z,6.28
2019-03-25T04:36:01.529Z,6.18
2019-03-25T04:41:04.976Z,6.23
2019-03-25T04:46:08.397Z,6.20
2019-03-25T04:51:12.184Z,6.08
2019-03-25T04:56:15.631Z,6.07
2019-03-25T05:01:19.078Z,6.03
2019-03-25T05:06:22.616Z,6.07
2019-03-25T05:11:30.639Z,5.96
2019-03-25T05:16:31.323Z,5.84
2019-03-25T05:21:34.810Z,5.78
2019-03-25T05:26:38.230Z,5.79
2019-03-25T05:31:41.805Z,5.69
2019-03-25T05:36:45.241Z,5.75
2019-03-25T05:41:48.678Z,5.78
2019-03-25T05:46:52.120Z,5.73
2019-03-25T05:51:55.805Z,5.78
2019-03-25T05:57:02.682Z,5.75
2019-03-25T06:02:04.500Z,5.81
2019-03-25T06:07:07.950Z,5.67
2019-03-25T06:12:11.374Z,5.71
2019-03-25T06:17:14.812Z,5.79
2019-03-25T06:22:18.241Z,5.86
2019-03-25T06:27:21.696Z,5.94
2019-03-25T06:32:25.140Z,5.89
2019-03-25T06:37:28.543Z,5.80
2019-03-25T06:42:31.942Z,5.94
2019-03-25T06:47:35.352Z,5.99
2019-03-25T06:52:38.888Z,6.12
2019-03-25T06:57:42.343Z,6.27
2019-03-25T07:02:45.786Z,6.35
2019-03-25T07:07:49.244Z,6.44
2019-03-25T07:12:52.722Z,6.42
2019-03-25T07:17:56.697Z,6.45
2019-03-25T07:23:00.116Z,6.59
2019-03-25T07:28:03.547Z,6.56
2019-03-25T07:33:06.953Z,6.59
2019-03-25T07:38:10.390Z,6.57
2019-03-25T07:43:13.833Z,6.46
2019-03-25T07:48:17.270Z,6.54
2019-03-25T07:53:20.839Z,6.68
2019-03-25T07:58:24.252Z,6.96
2019-03-25T08:03:27.793Z,7.09
2019-03-25T08:08:31.300Z,7.13
2019-03-25T08:13:34.730Z,7.15
2019-03-25T08:18:38.229Z,7.11
2019-03-25T08:23:41.634Z,7.10
2019-03-25T08:28:45.061Z,6.87
2019-03-25T08:33:48.477Z,6.93
2019-03-25T08:38:52.161Z,7.00
2019-03-25T08:43:55.613Z,6.81
2019-03-25T08:48:59.062Z,7.01
2019-03-25T08:54:02.516Z,7.15
2019-03-25T08:59:06.028Z,7.45
2019-03-25T09:04:09.454Z,7.85
2019-03-25T09:09:12.882Z,8.25
2019-03-25T09:14:16.365Z,8.28
2019-03-25T09:19:20.370Z,7.99
2019-03-25T09:24:23.924Z,7.86
2019-03-25T09:29:27.422Z,7.71
2019-03-25T09:34:30.877Z,7.49
2019-03-25T09:39:34.305Z,7.36
2019-03-25T09:44:37.810Z,7.69
2019-03-25T09:49:41.661Z,7.65
2019-03-25T09:54:45.123Z,7.87
2019-03-25T09:59:48.581Z,7.76
2019-03-25T10:04:51.978Z,7.66
2019-03-25T10:09:55.396Z,8.43
2019-03-25T10:14:58.813Z,9.06
2019-03-25T10:20:02.239Z,9.69
2019-03-25T10:25:07.852Z,9.18
2019-03-25T10:30:13.110Z,8.42
2019-03-25T10:35:16.725Z,7.90
2019-03-25T10:40:20.148Z,7.45
2019-03-25T10:45:26.056Z,7.68
2019-03-25T10:50:29.555Z,8.13
2019-03-25T10:55:32.969Z,8.94
2019-03-25T11:00:36.899Z,9.49
2019-03-25T11:05:40.336Z,9.83
2019-03-25T11:10:43.820Z,10.16
2019-03-25T11:15:47.247Z,10.41
2019-03-25T11:20:50.692Z,11.04
2019-03-25T11:25:54.228Z,11.37
2019-03-25T11:30:58.474Z,11.22
2019-03-25T11:36:02.883Z,11.47
2019-03-25T11:41:06.458Z,12.07
2019-03-25T11:46:10.018Z,12.31
2019-03-25T11:51:13.450Z,11.48
2019-03-25T11:56:16.937Z,11.59
2019-03-25T12:01:20.386Z,12.00
2019-03-25T12:06:23.862Z,11.71
2019-03-25T12:11:27.284Z,12.35
2019-03-25T12:16:31.545Z,12.10
2019-03-25T12:21:35.097Z,11.48
2019-03-25T12:26:38.613Z,10.97
2019-03-25T12:31:42.033Z,10.07
2019-03-25T12:36:45.516Z,10.46
2019-03-25T12:41:48.949Z,11.23
2019-03-25T12:46:52.366Z,11.56
2019-03-25T12:51:56.133Z,10.85
2019-03-25T12:57:00.687Z,10.24
2019-03-25T13:02:04.274Z,11.30
2019-03-25T13:07:07.721Z,11.58
2019-03-25T13:12:11.165Z,12.02
2019-03-25T13:17:14.598Z,11.64
2019-03-25T13:22:18.039Z,11.11
2019-03-25T13:27:21.464Z,11.08
2019-03-25T13:32:25.000Z,10.30
2019-03-25T13:37:28.430Z,9.66
2019-03-25T13:42:31.898Z,9.47
2019-03-25T13:47:35.294Z,8.81
2019-03-25T13:52:38.708Z,8.47
2019-03-25T13:57:42.185Z,8.46
2019-03-25T14:02:45.864Z,8.46
2019-03-25T14:07:49.737Z,8.30
2019-03-25T14:12:53.344Z,8.90
2019-03-25T14:17:56.961Z,9.15
2019-03-25T14:23:00.450Z,8.82
2019-03-25T14:28:03.932Z,8.96
2019-03-25T14:33:07.609Z,8.85
2019-03-25T14:38:11.110Z,8.80
2019-03-25T14:43:14.693Z,8.51
2019-03-25T14:48:18.179Z,8.73
2019-03-25T14:53:22.706Z,8.76
2019-03-25T14:58:26.269Z,8.95
2019-03-25T15:03:29.881Z,9.29
2019-03-25T15:08:33.379Z,9.36
2019-03-25T15:13:36.826Z,9.12
2019-03-25T15:18:40.446Z,8.74
2019-03-25T15:23:44.165Z,8.43
2019-03-25T15:28:47.691Z,8.48
2019-03-25T15:33:52.132Z,8.50
2019-03-25T15:38:55.622Z,8.67
2019-03-25T15:43:59.016Z,9.14
2019-03-25T15:49:02.429Z,9.49
2019-03-25T15:54:06.016Z,9.23
2019-03-25T15:59:09.975Z,9.05
2019-03-25T16:04:13.825Z,8.83
2019-03-25T16:09:17.319Z,8.77
2019-03-25T16:14:23.536Z,8.73
2019-03-25T16:19:27.353Z,8.67
2019-03-25T16:24:30.780Z,8.71
2019-03-25T16:29:35.080Z,8.65
2019-03-25T16:34:38.592Z,8.65
2019-03-25T16:39:42.013Z,8.67
2019-03-25T16:44:45.440Z,8.74
2019-03-25T16:49:48.908Z,8.83
2019-03-25T16:54:52.397Z,8.43
2019-03-25T16:59:55.977Z,8.29
2019-03-25T17:04:59.433Z,8.03
2019-03-25T17:10:02.871Z,8.00
2019-03-25T17:15:08.086Z,8.06
2019-03-25T17:20:11.725Z,8.25
2019-03-25T17:25:15.394Z,8.16
2019-03-25T17:30:19.747Z,8.04
2019-03-25T17:35:23.448Z,7.99
2019-03-25T17:40:27.055Z,8.10
2019-03-25T17:45:30.567Z,8.02
2019-03-25T17:50:34.157Z,7.89
2019-03-25T17:55:37.655Z,7.85
2019-03-25T18:00:50.393Z,7.79
2019-03-25T18:05:53.832Z,7.76
2019-03-25T18:10:57.335Z,7.75
2019-03-25T18:16:00.790Z,7.70
2019-03-25T18:21:04.271Z,7.57
2019-03-25T18:26:07.694Z,7.59
2019-03-25T18:31:11.397Z,7.61
2019-03-25T18:36:14.813Z,7.49
2019-03-25T18:41:18.314Z,7.32
2019-03-25T18:46:21.888Z,7.26
2019-03-25T18:51:25.379Z,7.12
2019-03-25T18:56:28.956Z,7.01
2019-03-25T19:01:32.647Z,6.95
2019-03-25T19:06:36.992Z,7.00
2019-03-25T19:11:40.431Z,7.05
2019-03-25T19:16:43.858Z,7.00
2019-03-25T19:21:47.317Z,6.99
2019-03-25T19:26:50.775Z,6.95
2019-03-25T19:32:05.878Z,6.79
2019-03-25T19:36:59.366Z,6.80
2019-03-25T19:42:03.655Z,6.81
2019-03-25T19:47:07.151Z,6.85
2019-03-25T19:52:10.575Z,6.81
2019-03-25T19:57:14.084Z,6.58
2019-03-25T20:02:19.192Z,6.53
2019-03-25T20:07:31.168Z,6.53
2019-03-25T20:12:44.618Z,6.45
2019-03-25T20:17:57.630Z,6.46
2019-03-25T20:23:12.439Z,6.42
2019-03-25T20:28:16.479Z,6.42
2019-03-25T20:33:19.929Z,6.43
2019-03-25T20:38:23.443Z,6.35
2019-03-25T20:43:26.865Z,6.15
2019-03-25T20:48:30.303Z,5.97
2019-03-25T20:53:33.782Z,5.94
2019-03-25T20:58:37.202Z,5.90
2019-03-25T21:03:42.259Z,5.77
2019-03-25T21:08:45.629Z,5.69
2019-03-25T21:13:49.249Z,5.69
2019-03-25T21:18:52.722Z,5.60
2019-03-25T21:23:56.129Z,5.60
2019-03-25T21:29:00.258Z,5.69
2019-03-25T21:34:03.842Z,5.61
2019-03-25T21:39:07.649Z,5.64
2019-03-25T21:44:11.191Z,5.63
2019-03-25T21:49:14.582Z,5.74
2019-03-25T21:54:18.050Z,5.82
2019-03-25T21:59:21.576Z,5.84
2019-03-25T22:04:25.005Z,5.85
2019-03-25T22:09:28.429Z,5.96
2019-03-25T22:14:31.845Z,5.95
2019-03-25T22:19:35.273Z,6.06
2019-03-25T22:24:38.713Z,6.06
2019-03-25T22:29:42.141Z,6.14
2019-03-25T22:34:45.577Z,6.24
2019-03-25T22:39:49.019Z,6.31
2019-03-25T22:44:52.434Z,6.39
2019-03-25T22:49:55.847Z,6.45
2019-03-25T22:54:59.268Z,6.48
2019-03-25T23:00:02.681Z,6.42
2019-03-25T23:05:06.954Z,6.51
2019-03-25T23:10:10.577Z,6.53
2019-03-25T23:15:14.129Z,6.47
2019-03-25T23:20:18.760Z,6.37
2019-03-25T23:25:22.430Z,6.39
2019-03-25T23:30:26.319Z,6.33
2019-03-25T23:35:29.705Z,6.30
2019-03-25T23:40:33.123Z,6.38
2019-03-25T23:45:36.770Z,6.30
2019-03-25T23:50:40.179Z,6.38
2019-03-25T23:55:43.599Z,6.35
